Terminal Aerodrome Forecast
Issued by NWS

Home | Current Version | Previous Version | Text Only | Print | Product List | Glossary Off
Versions: 1 2 3 4 5 6 7 8 9 10 11 12 13 14 15 16 17

000
FTUS42 KMHX 261100
TAFOAJ
TAF
KOAJ 261136Z 2612/2712 36012G18KT 4SM -RA OVC006
     FM261700 32015G20KT P6SM VCSH SCT007 OVC020
     FM262300 29005KT P6SM SCT025 BKN050
      AMD LTD TO CLD VIS AND WIND=

USA.gov is the U.S. government's official web portal to all federal, state and local government web resources and services.